createdAt,value
2018-11-20T00:00:03.596Z,96264.64
2018-11-20T00:02:51.118Z,96274.24
2018-11-20T00:05:34.742Z,96270.91
2018-11-20T00:08:30.222Z,96266.38
2018-11-20T00:11:22.493Z,96273.37
2018-11-20T00:14:11.103Z,96262.80
2018-11-20T00:17:06.790Z,96262.44
2018-11-20T00:19:55.659Z,96261.42
2018-11-20T00:22:42.279Z,96268.38
2018-11-20T00:25:25.827Z,96266.70
2018-11-20T00:28:14.590Z,96260.80
2018-11-20T00:31:06.900Z,96267.03
2018-11-20T00:34:06.155Z,96263.23
2018-11-20T00:36:54.192Z,96253.38
2018-11-20T00:39:49.970Z,96268.95
2018-11-20T00:42:45.266Z,96269.67
2018-11-20T00:45:33.964Z,96268.13
2018-11-20T00:48:18.018Z,96264.27
2018-11-20T00:51:08.451Z,96263.28
2018-11-20T00:53:56.526Z,96265.64
2018-11-20T00:56:56.628Z,96256.92
2018-11-20T00:59:47.754Z,96262.58
2018-11-20T01:02:36.247Z,96260.26
2018-11-20T01:05:32.828Z,96261.67
2018-11-20T01:08:13.925Z,96256.70
2018-11-20T01:11:06.252Z,96252.43
2018-11-20T01:13:54.825Z,96245.40
2018-11-20T01:16:44.471Z,96231.16
2018-11-20T01:19:40.342Z,96228.19
2018-11-20T01:22:29.828Z,96250.47
2018-11-20T01:25:10.068Z,96235.51
2018-11-20T01:28:05.571Z,96243.13
2018-11-20T01:31:03.882Z,96240.19
2018-11-20T01:33:47.077Z,96233.34
2018-11-20T01:36:35.203Z,96235.19
2018-11-20T01:39:29.193Z,96233.13
2018-11-20T01:42:07.778Z,96236.05
2018-11-20T01:45:15.550Z,96225.26
2018-11-20T01:48:11.084Z,96225.44
2018-11-20T01:50:54.420Z,96232.07
2018-11-20T01:53:50.258Z,96227.36
2018-11-20T01:56:45.947Z,96228.41
2018-11-20T01:59:29.517Z,96220.15
2018-11-20T02:02:17.911Z,96213.48
2018-11-20T02:05:13.748Z,96206.70
2018-11-20T02:08:06.182Z,96200.63
2018-11-20T02:11:07.496Z,96192.65
2018-11-20T02:14:15.603Z,96206.56
2018-11-20T02:17:24.070Z,96209.92
2018-11-20T02:20:17.147Z,96215.94
2018-11-20T02:23:06.794Z,96211.02
2018-11-20T02:25:51.079Z,96206.52
2018-11-20T02:28:43.376Z,96198.65
2018-11-20T02:31:32.117Z,96201.29
2018-11-20T02:34:28.889Z,96198.92
2018-11-20T02:37:07.950Z,96192.41
2018-11-20T02:39:58.563Z,96185.33
2018-11-20T02:42:41.501Z,96175.58
2018-11-20T02:45:39.500Z,96169.30
2018-11-20T02:48:28.413Z,96159.09
2018-11-20T02:51:18.154Z,96162.86
2018-11-20T02:54:13.830Z,96159.69
2018-11-20T02:57:09.361Z,96147.55
2018-11-20T03:00:14.015Z,96155.96
2018-11-20T03:03:19.607Z,96160.88
2018-11-20T03:06:12.170Z,96151.98
2018-11-20T03:08:55.554Z,96154.92
2018-11-20T03:11:45.122Z,96150.45
2018-11-20T03:14:37.474Z,96138.66
2018-11-20T03:17:25.514Z,96145.80
2018-11-20T03:20:09.448Z,96127.03
2018-11-20T03:23:08.324Z,96131.55
2018-11-20T03:26:04.720Z,96130.72
2018-11-20T03:29:08.226Z,96129.79
2018-11-20T03:31:56.699Z,96127.66
2018-11-20T03:34:49.045Z,96118.48
2018-11-20T03:37:28.313Z,96104.65
2018-11-20T03:40:16.650Z,96104.65
2018-11-20T03:42:52.920Z,96097.30
2018-11-20T03:45:32.749Z,96097.80
2018-11-20T03:48:40.646Z,96105.11
2018-11-20T03:51:31.037Z,96105.91
2018-11-20T03:54:35.803Z,96102.91
2018-11-20T03:57:22.976Z,96116.05
2018-11-20T04:00:01.018Z,96109.96
2018-11-20T04:02:50.574Z,96120.50
2018-11-20T04:05:49.460Z,96130.38
2018-11-20T04:08:41.922Z,96123.36
2018-11-20T04:11:24.746Z,96117.02
2018-11-20T04:14:12.825Z,96116.83
2018-11-20T04:16:57.177Z,96124.52
2018-11-20T04:19:50.082Z,96114.67
2018-11-20T04:22:39.654Z,96119.44
2018-11-20T04:25:28.222Z,96116.15
2018-11-20T04:28:16.285Z,96116.17
2018-11-20T04:31:47.887Z,96113.72
2018-11-20T04:34:49.660Z,96093.83
2018-11-20T04:37:38.408Z,96091.09
2018-11-20T04:40:40.687Z,96091.23
2018-11-20T04:43:23.862Z,96084.06
2018-11-20T04:46:11.861Z,96087.04
2018-11-20T04:49:04.109Z,96076.88
2018-11-20T04:51:46.511Z,96080.91
2018-11-20T04:54:30.105Z,96079.20
2018-11-20T04:57:18.597Z,96076.98
2018-11-20T05:00:14.029Z,96084.42
2018-11-20T05:03:12.324Z,96087.34
2018-11-20T05:06:00.578Z,96067.91
2018-11-20T05:08:55.528Z,96079.80
2018-11-20T05:11:36.690Z,96078.91
2018-11-20T05:14:35.609Z,96083.61
2018-11-20T05:17:40.751Z,96081.13
2018-11-20T05:20:33.116Z,96080.40
2018-11-20T05:23:21.264Z,96083.23
2018-11-20T05:25:58.176Z,96081.67
2018-11-20T05:28:44.769Z,96078.80
2018-11-20T05:31:30.804Z,96074.17
2018-11-20T05:34:10.006Z,96066.25
2018-11-20T05:36:59.550Z,96063.27
2018-11-20T05:39:57.957Z,96064.09
2018-11-20T05:42:46.495Z,96065.81
2018-11-20T05:45:41.833Z,96057.48
2018-11-20T05:48:37.624Z,96055.30
2018-11-20T05:51:17.693Z,96057.45
2018-11-20T05:54:03.816Z,96054.55
2018-11-20T05:56:52.146Z,96051.61
2018-11-20T05:59:56.831Z,96040.08
2018-11-20T06:02:45.098Z,96044.78
2018-11-20T06:05:31.217Z,96034.43
2018-11-20T06:08:14.690Z,96042.70
2018-11-20T06:10:52.558Z,96032.95
2018-11-20T06:13:40.784Z,96026.20
2018-11-20T06:16:33.417Z,96025.78
2018-11-20T06:19:31.609Z,96028.36
2018-11-20T06:22:20.114Z,96030.08
2018-11-20T06:25:08.444Z,96038.13
2018-11-20T06:28:03.757Z,96034.89
2018-11-20T06:30:42.468Z,96035.84
2018-11-20T06:33:32.105Z,96038.50
2018-11-20T06:36:23.420Z,96035.11
2018-11-20T06:39:09.766Z,96035.55
2018-11-20T06:42:08.491Z,96031.82
2018-11-20T06:45:01.678Z,96034.39
2018-11-20T06:47:49.845Z,96040.36
2018-11-20T06:50:27.988Z,96039.11
2018-11-20T06:53:16.985Z,96035.77
2018-11-20T06:56:18.396Z,96041.33
2018-11-20T06:59:17.263Z,96046.01
2018-11-20T07:01:54.712Z,96048.84
2018-11-20T07:05:02.710Z,96054.34
2018-11-20T07:07:47.734Z,96055.11
2018-11-20T07:10:55.510Z,96063.27
2018-11-20T07:13:49.749Z,96075.99
2018-11-20T07:16:45.415Z,96077.41
2018-11-20T07:19:53.962Z,96088.54
2018-11-20T07:22:52.382Z,96085.02
2018-11-20T07:25:45.146Z,96085.91
2018-11-20T07:28:33.213Z,96082.48
2018-11-20T07:31:38.246Z,96087.59
2018-11-20T07:34:27.812Z,96090.91
2018-11-20T07:37:16.127Z,96092.56
2018-11-20T07:39:57.853Z,96079.80
2018-11-20T07:42:42.789Z,96085.00
2018-11-20T07:45:31.318Z,96080.75
2018-11-20T07:48:35.931Z,96086.75
2018-11-20T07:51:39.143Z,96080.05
2018-11-20T07:54:28.675Z,96077.61
2018-11-20T07:57:08.022Z,96078.20
2018-11-20T07:59:53.378Z,96071.92
2018-11-20T08:02:43.022Z,96081.17
2018-11-20T08:05:26.622Z,96084.48
2018-11-20T08:08:15.100Z,96086.64
2018-11-20T08:11:01.006Z,96087.97
2018-11-20T08:13:53.712Z,96084.58
2018-11-20T08:16:36.310Z,96087.72
2018-11-20T08:19:38.170Z,96089.01
2018-11-20T08:22:18.598Z,96094.18
2018-11-20T08:25:10.785Z,96093.49
2018-11-20T08:27:59.264Z,96084.89
2018-11-20T08:31:07.447Z,96099.45
2018-11-20T08:33:55.734Z,96102.91
2018-11-20T08:36:35.764Z,96097.01
2018-11-20T08:39:26.192Z,96103.90
2018-11-20T08:42:10.811Z,96109.77
2018-11-20T08:45:03.468Z,96100.14
2018-11-20T08:48:12.221Z,96095.48
2018-11-20T08:51:01.698Z,96096.37
2018-11-20T08:53:54.637Z,96093.11
2018-11-20T08:56:36.891Z,96089.01
2018-11-20T08:59:44.897Z,96094.86
2018-11-20T09:02:35.555Z,96092.05
2018-11-20T09:05:23.991Z,96088.73
2018-11-20T09:08:12.289Z,96082.03
2018-11-20T09:11:00.540Z,96088.00
2018-11-20T09:13:48.771Z,96102.73
2018-11-20T09:16:44.497Z,96108.59
2018-11-20T09:19:40.106Z,96101.34
2018-11-20T09:22:28.900Z,96097.73
2018-11-20T09:25:21.193Z,96098.28
2018-11-20T09:28:29.219Z,96105.03
2018-11-20T09:31:24.620Z,96104.23
2018-11-20T09:34:13.384Z,96109.45
2018-11-20T09:37:06.560Z,96104.93
2018-11-20T09:40:11.590Z,96101.92
2018-11-20T09:43:04.776Z,96096.45
2018-11-20T09:46:13.153Z,96095.74
2018-11-20T09:49:01.009Z,96074.59
2018-11-20T09:51:49.485Z,96081.42
2018-11-20T09:54:48.028Z,96077.32
2018-11-20T09:57:36.503Z,96075.02
2018-11-20T10:00:36.015Z,96068.80
2018-11-20T10:03:14.183Z,96053.69
2018-11-20T10:06:02.300Z,96054.34
2018-11-20T10:09:07.227Z,96050.25
2018-11-20T10:11:52.398Z,96063.58
2018-11-20T10:14:34.253Z,96053.25
2018-11-20T10:17:22.395Z,96050.77
2018-11-20T10:20:17.561Z,96048.69
2018-11-20T10:23:04.039Z,96036.42
2018-11-20T10:25:52.620Z,96034.48
2018-11-20T10:28:45.027Z,96027.09
2018-11-20T10:31:37.078Z,96038.03
2018-11-20T10:34:32.837Z,96034.92
2018-11-20T10:37:09.879Z,96024.61
2018-11-20T10:40:05.281Z,96011.20
2018-11-20T10:43:13.339Z,95992.54
2018-11-20T10:46:02.951Z,95994.58
2018-11-20T10:48:58.535Z,95991.93
2018-11-20T10:51:50.728Z,96000.70
2018-11-20T10:54:58.516Z,95997.34
2018-11-20T10:57:53.987Z,95997.91
2018-11-20T11:00:42.187Z,95996.11
2018-11-20T11:03:19.748Z,95998.82
2018-11-20T11:06:07.969Z,95984.98
2018-11-20T11:08:56.389Z,95972.52
2018-11-20T11:11:45.046Z,95964.48
2018-11-20T11:14:33.807Z,95971.85
2018-11-20T11:17:21.753Z,95967.94
2018-11-20T11:20:10.283Z,95980.84
2018-11-20T11:23:15.159Z,95974.38
2018-11-20T11:26:03.482Z,95972.80
2018-11-20T11:28:41.488Z,95974.90
2018-11-20T11:31:25.732Z,95977.81
2018-11-20T11:34:16.750Z,95985.30
2018-11-20T11:37:05.304Z,95971.89
2018-11-20T11:39:53.746Z,95971.03
2018-11-20T11:42:45.398Z,95980.31
2018-11-20T11:45:41.147Z,95984.34
2018-11-20T11:48:39.503Z,95987.80
2018-11-20T11:51:31.776Z,95988.28
2018-11-20T11:54:20.307Z,95991.45
2018-11-20T11:57:10.209Z,95992.25
2018-11-20T11:59:58.378Z,95993.59
2018-11-20T12:05:38.825Z,95991.90
2018-11-20T12:08:27.012Z,95993.68
2018-11-20T12:11:15.081Z,95983.20
2018-11-20T12:14:05.016Z,95976.87
2018-11-20T12:17:06.887Z,95980.11
2018-11-20T12:19:55.466Z,95968.81
2018-11-20T12:22:44.359Z,95968.30
2018-11-20T12:25:37.807Z,95960.15
2018-11-20T12:28:26.090Z,95958.12
2018-11-20T12:31:12.909Z,95957.70
2018-11-20T12:33:54.283Z,95953.95
2018-11-20T12:36:42.619Z,95957.11
2018-11-20T12:39:26.486Z,95952.52
2018-11-20T12:42:14.834Z,95939.67
2018-11-20T12:45:15.600Z,95957.85
2018-11-20T12:48:12.180Z,95950.77
2018-11-20T12:51:11.095Z,95947.53
2018-11-20T12:54:00.618Z,95947.36
2018-11-20T12:56:48.668Z,95946.87
2018-11-20T12:59:41.211Z,95946.19
2018-11-20T13:02:30.844Z,95951.76
2018-11-20T13:05:13.373Z,95947.84
2018-11-20T13:08:06.217Z,95941.78
2018-11-20T13:10:55.988Z,95938.33
2018-11-20T13:13:45.524Z,95950.18
2018-11-20T13:16:24.957Z,95946.66
2018-11-20T13:19:20.519Z,95954.87
2018-11-20T13:22:10.289Z,95959.14
2018-11-20T13:25:18.053Z,95970.70
2018-11-20T13:28:22.857Z,95978.61
2018-11-20T13:31:09.695Z,95987.38
2018-11-20T13:34:02.369Z,95981.00
2018-11-20T13:36:54.805Z,95973.66
2018-11-20T13:39:34.402Z,95977.37
2018-11-20T13:42:32.002Z,95985.09
2018-11-20T13:45:18.585Z,95984.64
2018-11-20T13:48:14.172Z,95995.66
2018-11-20T13:51:05.417Z,96002.66
2018-11-20T13:53:53.540Z,96008.17
2018-11-20T13:56:41.843Z,96003.88
2018-11-20T13:59:30.068Z,96013.38
2018-11-20T14:02:25.221Z,96014.41
2018-11-20T14:05:19.472Z,96016.41
2018-11-20T14:08:20.645Z,96017.06
2018-11-20T14:11:22.440Z,96017.44
2018-11-20T14:14:05.030Z,96019.28
2018-11-20T14:17:00.467Z,96025.27
2018-11-20T14:19:55.850Z,96021.68
2018-11-20T14:22:40.466Z,96027.45
2018-11-20T14:25:51.765Z,96033.04
2018-11-20T14:28:39.777Z,96032.57
2018-11-20T14:31:21.796Z,96035.58
2018-11-20T14:34:09.160Z,96038.16
2018-11-20T14:36:57.455Z,96043.83
2018-11-20T14:39:56.285Z,96044.71
2018-11-20T14:42:44.474Z,96054.50
2018-11-20T14:45:45.148Z,96061.34
2018-11-20T14:48:27.443Z,96068.16
2018-11-20T14:51:16.222Z,96066.45
2018-11-20T14:54:08.508Z,96062.39
2018-11-20T14:57:16.452Z,96080.75
2018-11-20T15:00:14.560Z,96087.09
2018-11-20T15:03:13.600Z,96096.14
2018-11-20T15:05:58.377Z,96088.14
2018-11-20T15:08:40.164Z,96089.62
2018-11-20T15:11:28.302Z,96100.98
2018-11-20T15:14:18.528Z,96101.55
2018-11-20T15:17:13.431Z,96095.77
2018-11-20T15:20:12.061Z,96101.84
2018-11-20T15:23:14.256Z,96108.17
2018-11-20T15:25:54.947Z,96111.69
2018-11-20T15:28:47.518Z,96106.17
2018-11-20T15:31:55.413Z,96107.27
2018-11-20T15:34:43.594Z,96117.59
2018-11-20T15:37:32.513Z,96120.69
2018-11-20T15:40:27.661Z,96120.39
2018-11-20T15:43:15.972Z,96121.09
2018-11-20T15:46:04.195Z,96134.02
2018-11-20T15:48:52.839Z,96141.84
2018-11-20T15:51:32.720Z,96150.39
2018-11-20T15:54:31.899Z,96160.98
2018-11-20T15:57:21.143Z,96160.33
2018-11-20T16:00:28.936Z,96172.17
2018-11-20T16:03:22.946Z,96173.66
2018-11-20T16:06:04.926Z,96173.27
2018-11-20T16:08:57.263Z,96177.67
2018-11-20T16:12:02.174Z,96190.37
2018-11-20T16:14:57.702Z,96192.38
2018-11-20T16:17:50.017Z,96186.72
2018-11-20T16:20:29.568Z,96194.03
2018-11-20T16:23:25.021Z,96197.75
2018-11-20T16:26:14.567Z,96203.79
2018-11-20T16:29:16.710Z,96211.31
2018-11-20T16:32:06.688Z,96212.48
2018-11-20T16:34:54.789Z,96218.40
2018-11-20T16:37:56.156Z,96209.67
2018-11-20T16:40:54.496Z,96219.67
2018-11-20T16:43:44.286Z,96221.20
2018-11-20T16:46:48.724Z,96227.53
2018-11-20T16:49:36.649Z,96226.95
2018-11-20T16:52:29.027Z,96233.27
2018-11-20T16:55:19.022Z,96239.08
2018-11-20T16:58:16.815Z,96235.31
2018-11-20T17:01:06.594Z,96233.49
2018-11-20T17:03:54.655Z,96240.34
2018-11-20T17:06:35.195Z,96236.52
2018-11-20T17:09:41.707Z,96243.29
2018-11-20T17:12:20.094Z,96255.69
2018-11-20T17:15:02.134Z,96261.40
2018-11-20T17:17:45.046Z,96265.14
2018-11-20T17:20:31.314Z,96258.30
2018-11-20T17:23:20.858Z,96272.39
2018-11-20T17:26:08.787Z,96277.84
2018-11-20T17:28:58.644Z,96284.45
2018-11-20T17:31:46.807Z,96286.92
2018-11-20T17:34:36.042Z,96297.02
2018-11-20T17:37:27.156Z,96301.20
2018-11-20T17:40:15.195Z,96303.44
2018-11-20T17:43:14.172Z,96305.58
2018-11-20T17:46:03.903Z,96310.83
2018-11-20T17:48:59.123Z,96307.59
2018-11-20T17:52:07.008Z,96316.34
2018-11-20T17:55:02.307Z,96320.06
2018-11-20T17:57:57.238Z,96321.16
2018-11-20T18:00:44.054Z,96320.52
2018-11-20T18:03:33.749Z,96325.93
2018-11-20T18:06:32.168Z,96329.81
2018-11-20T18:09:20.170Z,96336.58
2018-11-20T18:12:09.040Z,96332.92
2018-11-20T18:14:57.423Z,96337.20
2018-11-20T18:17:53.697Z,96346.86
2018-11-20T18:20:41.615Z,96341.78
2018-11-20T18:23:46.223Z,96341.38
2018-11-20T18:26:48.771Z,96334.41
2018-11-20T18:29:50.302Z,96340.10
2018-11-20T18:32:38.833Z,96339.55
2018-11-20T18:35:28.697Z,96337.23
2018-11-20T18:38:36.812Z,96340.96
2018-11-20T18:41:23.101Z,96337.69
2018-11-20T18:44:15.330Z,96354.36
2018-11-20T18:47:23.220Z,96360.23
2018-11-20T18:50:28.080Z,96356.10
2018-11-20T18:53:16.362Z,96352.89
2018-11-20T18:56:03.825Z,96358.52
2018-11-20T18:58:51.629Z,96361.48
2018-11-20T19:01:39.935Z,96358.68
2018-11-20T19:04:35.821Z,96364.39
2018-11-20T19:07:32.612Z,96372.13
2018-11-20T19:10:28.262Z,96368.25
2018-11-20T19:13:20.856Z,96374.39
2018-11-20T19:16:09.288Z,96375.10
2018-11-20T19:19:02.994Z,96373.63
2018-11-20T19:21:58.586Z,96381.84
2018-11-20T19:24:53.661Z,96386.16
2018-11-20T19:27:46.178Z,96378.70
2018-11-20T19:30:50.822Z,96381.76
2018-11-20T19:33:46.397Z,96372.37
2018-11-20T19:36:28.358Z,96389.72
2018-11-20T19:39:15.916Z,96392.41
2018-11-20T19:42:08.748Z,96400.38
2018-11-20T19:44:49.712Z,96400.02
2018-11-20T19:47:45.182Z,96419.73
2018-11-20T19:50:35.080Z,96427.27
2018-11-20T19:53:23.820Z,96438.27
2018-11-20T19:56:22.392Z,96435.88
2018-11-20T19:59:20.653Z,96451.02
2018-11-20T20:02:22.349Z,96458.92
2018-11-20T20:05:21.214Z,96456.62
2018-11-20T20:08:26.037Z,96463.77
2018-11-20T20:11:06.108Z,96462.61
2018-11-20T20:13:54.372Z,96470.43
2018-11-20T20:16:48.216Z,96471.65
2018-11-20T20:19:36.682Z,96479.03
2018-11-20T20:22:24.963Z,96470.20
2018-11-20T20:25:14.606Z,96465.79
2018-11-20T20:28:07.435Z,96480.73
2018-11-20T20:30:55.450Z,96485.48
2018-11-20T20:33:43.762Z,96491.74
2018-11-20T20:36:32.221Z,96496.11
2018-11-20T20:39:21.178Z,96493.36
2018-11-20T20:42:09.376Z,96507.85
2018-11-20T20:44:57.511Z,96506.14
2018-11-20T20:47:49.850Z,96507.72
2018-11-20T20:50:57.746Z,96510.59
2018-11-20T20:53:43.843Z,96505.48
2018-11-20T20:56:27.391Z,96502.30
2018-11-20T20:59:19.126Z,96509.27
2018-11-20T21:02:14.650Z,96502.20
2018-11-20T21:05:07.782Z,96510.55
2018-11-20T21:07:55.912Z,96515.56
2018-11-20T21:10:44.239Z,96521.77
2018-11-20T21:13:42.595Z,96519.77
2018-11-20T21:16:32.243Z,96521.38
2018-11-20T21:19:21.767Z,96517.54
2018-11-20T21:22:17.519Z,96522.31
2018-11-20T21:25:07.152Z,96511.22
2018-11-20T21:27:48.042Z,96511.44
2018-11-20T21:30:43.750Z,96507.33
2018-11-20T21:33:26.877Z,96512.34
2018-11-20T21:36:25.220Z,96515.75
2018-11-20T21:39:13.681Z,96525.35
2018-11-20T21:41:57.133Z,96527.80
2018-11-20T21:44:49.528Z,96526.53
2018-11-20T21:47:38.450Z,96527.54
2018-11-20T21:50:36.132Z,96529.76
2018-11-20T21:53:26.042Z,96534.38
2018-11-20T21:56:21.634Z,96532.50
2018-11-20T21:59:19.680Z,96534.50
2018-11-20T22:02:10.479Z,96540.84
2018-11-20T22:05:03.121Z,96546.17
2018-11-20T22:07:42.677Z,96546.98
2018-11-20T22:10:33.500Z,96544.31
2018-11-20T22:13:35.395Z,96555.63
2018-11-20T22:16:23.283Z,96560.14
2018-11-20T22:19:19.103Z,96558.69
2018-11-20T22:22:54.081Z,96558.27
2018-11-20T22:25:51.555Z,96566.61
2018-11-20T22:28:49.668Z,96555.23
2018-11-20T22:31:32.007Z,96556.19
2018-11-20T22:34:23.307Z,96559.75
2018-11-20T22:37:10.236Z,96559.41
2018-11-20T22:39:57.415Z,96554.11
2018-11-20T22:42:52.210Z,96566.98
2018-11-20T22:45:55.647Z,96566.24
2018-11-20T22:48:43.045Z,96564.23
2018-11-20T22:51:37.297Z,96570.02
2018-11-20T22:54:24.612Z,96575.34
2018-11-20T22:57:05.286Z,96570.02
2018-11-20T22:59:53.198Z,96568.67
2018-11-20T23:02:50.311Z,96570.94
2018-11-20T23:05:46.133Z,96567.48
2018-11-20T23:08:15.568Z,96568.14
2018-11-20T23:10:44.950Z,96583.77
2018-11-20T23:13:14.504Z,96580.52
2018-11-20T23:15:43.945Z,96583.15
2018-11-20T23:18:13.365Z,96583.67
2018-11-20T23:20:43.582Z,96592.54
2018-11-20T23:23:12.999Z,96593.33
2018-11-20T23:25:42.351Z,96594.21
2018-11-20T23:28:11.780Z,96598.94
2018-11-20T23:30:41.434Z,96600.64
2018-11-20T23:33:10.772Z,96602.39
2018-11-20T23:35:40.212Z,96603.70
2018-11-20T23:38:09.973Z,96612.38
2018-11-20T23:40:39.350Z,96610.39
2018-11-20T23:43:09.038Z,96609.32
2018-11-20T23:45:39.046Z,96603.77
2018-11-20T23:48:08.781Z,96598.75
2018-11-20T23:50:38.483Z,96600.44
2018-11-20T23:53:08.611Z,96600.36
2018-11-20T23:55:37.988Z,96601.52
2018-11-20T23:58:07.471Z,96594.70
